createdAt,value
2019-04-14T00:02:59.793Z,1017.62
2019-04-14T00:07:56.345Z,1017.68
2019-04-14T00:12:51.568Z,1017.68
2019-04-14T00:17:47.900Z,1017.59
2019-04-14T00:22:44.554Z,1017.55
2019-04-14T00:27:40.826Z,1017.54
2019-04-14T00:32:37.847Z,1017.53
2019-04-14T00:37:33.868Z,1017.47
2019-04-14T00:42:29.857Z,1017.47
2019-04-14T00:47:25.219Z,1017.48
2019-04-14T00:52:21.212Z,1017.45
2019-04-14T00:57:18.095Z,1017.48
2019-04-14T01:02:13.181Z,1017.46
2019-04-14T01:07:08.818Z,1017.50
2019-04-14T01:12:04.446Z,1017.43
2019-04-14T01:17:00.616Z,1017.37
2019-04-14T01:21:57.007Z,1017.31
2019-04-14T01:26:52.928Z,1017.39
2019-04-14T01:31:49.358Z,1017.36
2019-04-14T01:36:45.745Z,1017.42
2019-04-14T01:41:41.130Z,1017.40
2019-04-14T01:46:37.375Z,1017.51
2019-04-14T01:51:33.152Z,1017.49
2019-04-14T01:56:29.441Z,1017.54
2019-04-14T02:01:25.816Z,1017.49
2019-04-14T02:06:22.329Z,1017.49
2019-04-14T02:11:18.348Z,1017.56
2019-04-14T02:16:24.024Z,1017.58
2019-04-14T02:21:12.891Z,1017.55
2019-04-14T02:26:09.177Z,1017.53
2019-04-14T02:31:17.205Z,1017.54
2019-04-14T02:36:36.271Z,1017.50
2019-04-14T02:41:37.972Z,1017.58
2019-04-14T02:46:31.422Z,1017.66
2019-04-14T02:51:29.577Z,1017.66
2019-04-14T02:56:27.997Z,1017.71
2019-04-14T03:01:40.620Z,1017.70
2019-04-14T03:06:18.151Z,1017.67
2019-04-14T03:11:24.579Z,1017.69
2019-04-14T03:16:23.617Z,1017.75
2019-04-14T03:21:34.576Z,1017.83
2019-04-14T03:26:22.963Z,1017.67
2019-04-14T03:31:37.623Z,1017.69
2019-04-14T03:46:17.755Z,1017.70
2019-04-14T03:51:16.789Z,1017.79
2019-04-14T03:55:54.383Z,1017.72
2019-04-14T04:00:49.165Z,1017.75
2019-04-14T04:05:44.198Z,1017.79
2019-04-14T04:10:40.037Z,1017.72
2019-04-14T04:15:36.497Z,1017.81
2019-04-14T04:20:39.158Z,1017.81
2019-04-14T04:25:34.022Z,1017.86
2019-04-14T04:30:30.163Z,1017.99
2019-04-14T04:35:26.015Z,1018.00
2019-04-14T04:40:22.306Z,1017.99
2019-04-14T04:45:17.676Z,1018.12
2019-04-14T04:50:13.486Z,1018.07
2019-04-14T04:55:09.788Z,1018.25
2019-04-14T05:00:07.243Z,1018.25
2019-04-14T05:05:03.516Z,1018.18
2019-04-14T05:10:00.174Z,1018.31
2019-04-14T05:14:56.662Z,1018.30
2019-04-14T05:19:51.949Z,1018.30
2019-04-14T05:24:48.603Z,1018.26
2019-04-14T05:29:44.991Z,1018.29
2019-04-14T05:34:41.208Z,1018.30
2019-04-14T05:39:37.478Z,1018.38
2019-04-14T05:44:34.143Z,1018.44
2019-04-14T05:49:37.858Z,1018.38
2019-04-14T05:54:29.643Z,1018.45
2019-04-14T05:59:25.011Z,1018.44
2019-04-14T06:04:22.175Z,1018.51
2019-04-14T06:09:17.698Z,1018.52
2019-04-14T06:14:13.371Z,1018.50
2019-04-14T06:19:09.078Z,1018.62
2019-04-14T06:24:12.548Z,1018.74
2019-04-14T06:29:06.993Z,1018.76
2019-04-14T06:34:02.546Z,1018.67
2019-04-14T06:38:58.725Z,1018.69
2019-04-14T06:43:55.623Z,1018.77
2019-04-14T06:48:51.086Z,1018.80
2019-04-14T06:53:46.258Z,1018.88
2019-04-14T06:58:42.037Z,1018.87
2019-04-14T07:03:38.781Z,1018.95
2019-04-14T07:08:35.671Z,1018.92
2019-04-14T07:13:31.111Z,1018.97
2019-04-14T07:18:26.651Z,1018.98
2019-04-14T07:23:22.596Z,1019.08
2019-04-14T07:28:18.470Z,1019.06
2019-04-14T07:33:14.541Z,1019.07
2019-04-14T07:38:10.279Z,1019.07
2019-04-14T07:43:06.323Z,1019.07
2019-04-14T07:48:02.955Z,1019.07
2019-04-14T07:52:58.611Z,1019.08
2019-04-14T07:57:54.337Z,1019.10
2019-04-14T08:02:51.102Z,1019.06
2019-04-14T08:07:47.406Z,1019.01
2019-04-14T08:12:43.920Z,1018.96
2019-04-14T08:17:40.124Z,1019.16
2019-04-14T08:22:36.820Z,1019.16
2019-04-14T08:32:33.034Z,1019.23
2019-04-14T08:37:28.282Z,1019.09
2019-04-14T08:42:24.750Z,1019.15
2019-04-14T08:47:21.394Z,1019.08
2019-04-14T08:52:17.333Z,1019.10
2019-04-14T08:57:12.911Z,1019.06
2019-04-14T09:02:09.067Z,1019.13
2019-04-14T09:07:05.157Z,1019.14
2019-04-14T09:12:00.992Z,1019.16
2019-04-14T09:16:56.828Z,1019.16
2019-04-14T09:21:52.986Z,1019.15
2019-04-14T09:26:49.824Z,1018.97
2019-04-14T09:31:45.755Z,1019.01
2019-04-14T09:36:41.392Z,1019.07
2019-04-14T09:41:37.190Z,1019.08
2019-04-14T09:46:33.378Z,1019.11
2019-04-14T09:51:28.760Z,1019.14
2019-04-14T09:56:25.246Z,1019.11
2019-04-14T10:01:21.224Z,1018.98
2019-04-14T10:06:17.013Z,1019.12
2019-04-14T10:11:13.773Z,1019.36
2019-04-14T10:16:10.345Z,1019.14
2019-04-14T10:21:16.921Z,1019.19
2019-04-14T10:26:07.111Z,1019.05
2019-04-14T10:31:03.961Z,1019.01
2019-04-14T10:36:00.781Z,1019.15
2019-04-14T10:40:56.899Z,1019.04
2019-04-14T10:45:54.003Z,1019.08
2019-04-14T10:50:50.352Z,1019.15
2019-04-14T10:55:45.792Z,1019.15
2019-04-14T11:00:42.304Z,1019.09
2019-04-14T11:05:39.845Z,1019.01
2019-04-14T11:10:36.517Z,1019.12
2019-04-14T11:15:30.618Z,1019.01
2019-04-14T11:20:24.289Z,1019.06
2019-04-14T11:25:21.480Z,1019.09
2019-04-14T11:30:18.469Z,1019.03
2019-04-14T11:35:16.345Z,1018.95
2019-04-14T11:40:11.739Z,1019.09
2019-04-14T11:45:09.742Z,1019.09
2019-04-14T11:50:05.962Z,1019.06
2019-04-14T11:55:01.688Z,1019.08
2019-04-14T11:59:59.594Z,1019.09
2019-04-14T12:04:55.952Z,1019.23
2019-04-14T12:09:51.419Z,1019.00
2019-04-14T12:14:46.975Z,1018.97
2019-04-14T12:19:41.930Z,1019.12
2019-04-14T12:24:38.052Z,1019.16
2019-04-14T12:29:34.919Z,1019.25
2019-04-14T12:34:31.168Z,1019.25
2019-04-14T12:39:28.070Z,1019.42
2019-04-14T12:44:24.560Z,1019.38
2019-04-14T12:49:21.600Z,1019.36
2019-04-14T12:54:17.898Z,1019.31
2019-04-14T12:59:14.472Z,1019.39
2019-04-14T13:04:10.493Z,1019.22
2019-04-14T13:09:06.435Z,1019.23
2019-04-14T13:14:02.065Z,1019.31
2019-04-14T13:18:57.861Z,1019.36
2019-04-14T13:23:53.085Z,1019.32
2019-04-14T13:28:49.109Z,1019.30
2019-04-14T13:33:45.232Z,1019.19
2019-04-14T13:38:41.069Z,1019.11
2019-04-14T13:43:38.059Z,1019.19
2019-04-14T13:48:33.719Z,1019.26
2019-04-14T13:53:29.837Z,1019.15
2019-04-14T13:58:25.158Z,1019.15
2019-04-14T14:03:21.102Z,1019.09
2019-04-14T14:08:17.134Z,1019.08
2019-04-14T14:13:13.226Z,1018.98
2019-04-14T14:18:10.206Z,1019.00
2019-04-14T14:23:05.799Z,1019.05
2019-04-14T14:28:01.401Z,1018.99
2019-04-14T14:32:57.354Z,1019.00
2019-04-14T14:37:54.116Z,1018.94
2019-04-14T14:42:48.779Z,1018.99
2019-04-14T14:47:44.716Z,1018.96
2019-04-14T14:52:40.409Z,1018.92
2019-04-14T14:57:35.802Z,1018.88
2019-04-14T15:02:31.702Z,1018.92
2019-04-14T15:07:27.610Z,1018.90
2019-04-14T15:12:23.824Z,1018.81
2019-04-14T15:17:19.670Z,1018.91
2019-04-14T15:22:15.445Z,1018.88
2019-04-14T15:27:11.368Z,1018.91
2019-04-14T15:32:07.205Z,1018.84
2019-04-14T15:37:03.074Z,1018.94
2019-04-14T15:41:59.019Z,1018.89
2019-04-14T15:46:55.887Z,1018.92
2019-04-14T15:51:51.417Z,1018.85
2019-04-14T15:56:47.060Z,1019.00
2019-04-14T16:01:42.623Z,1018.96
2019-04-14T16:06:39.085Z,1018.93
2019-04-14T16:11:35.467Z,1019.03
2019-04-14T16:16:30.950Z,1019.21
2019-04-14T16:21:26.887Z,1019.23
2019-04-14T16:26:22.842Z,1019.20
2019-04-14T16:31:18.582Z,1019.21
2019-04-14T16:36:14.330Z,1019.22
2019-04-14T16:41:09.768Z,1019.29
2019-04-14T16:46:06.520Z,1019.33
2019-04-14T16:51:09.996Z,1019.36
2019-04-14T16:56:04.708Z,1019.43
2019-04-14T17:01:00.565Z,1019.49
2019-04-14T17:05:56.240Z,1019.53
2019-04-14T17:10:51.745Z,1019.59
2019-04-14T17:15:54.902Z,1019.66
2019-04-14T17:20:51.027Z,1019.72
2019-04-14T17:25:48.833Z,1019.73
2019-04-14T17:30:44.345Z,1019.87
2019-04-14T17:35:40.242Z,1019.94
2019-04-14T17:40:37.970Z,1019.90
2019-04-14T17:45:33.657Z,1019.91
2019-04-14T17:50:40.028Z,1019.91
2019-04-14T17:55:28.309Z,1020.10
2019-04-14T18:00:24.159Z,1020.20
2019-04-14T18:05:20.648Z,1020.28
2019-04-14T18:10:16.001Z,1020.31
2019-04-14T18:15:12.292Z,1020.37
2019-04-14T18:20:08.119Z,1020.40
2019-04-14T18:25:03.877Z,1020.46
2019-04-14T18:29:59.148Z,1020.50
2019-04-14T18:34:55.215Z,1020.50
2019-04-14T18:39:52.396Z,1020.55
2019-04-14T18:44:51.138Z,1020.56
2019-04-14T18:49:45.740Z,1020.68
2019-04-14T18:54:41.058Z,1020.62
2019-04-14T18:59:36.846Z,1020.62
2019-04-14T19:04:33.893Z,1020.74
2019-04-14T19:09:29.660Z,1020.57
2019-04-14T19:14:25.345Z,1020.59
2019-04-14T19:19:21.289Z,1020.59
2019-04-14T19:24:16.885Z,1020.70
2019-04-14T19:29:13.963Z,1020.63
2019-04-14T19:34:10.363Z,1020.78
2019-04-14T19:39:05.951Z,1020.67
2019-04-14T19:44:01.730Z,1020.69
2019-04-14T19:48:57.859Z,1020.69
2019-04-14T19:53:53.490Z,1020.84
2019-04-14T19:58:50.073Z,1020.83
2019-04-14T20:03:46.679Z,1020.88
2019-04-14T20:08:42.136Z,1020.90
2019-04-14T20:13:42.296Z,1020.89
2019-04-14T20:18:38.381Z,1020.89
2019-04-14T20:23:33.634Z,1021.11
2019-04-14T20:28:29.295Z,1021.03
2019-04-14T20:33:27.238Z,1021.08
2019-04-14T20:38:22.993Z,1021.06
2019-04-14T20:43:19.552Z,1021.17
2019-04-14T20:48:17.220Z,1021.23
2019-04-14T20:53:12.290Z,1021.18
2019-04-14T20:58:07.920Z,1021.18
2019-04-14T21:03:03.745Z,1021.30
2019-04-14T21:07:59.256Z,1021.27
2019-04-14T21:12:57.408Z,1021.33
2019-04-14T21:17:52.952Z,1021.41
2019-04-14T21:22:49.026Z,1021.33
2019-04-14T21:27:45.814Z,1021.29
2019-04-14T21:32:42.867Z,1021.38
2019-04-14T21:37:38.444Z,1021.43
2019-04-14T21:42:34.178Z,1021.40
2019-04-14T21:47:30.035Z,1021.44
2019-04-14T21:52:25.813Z,1021.54
2019-04-14T21:57:21.642Z,1021.40
2019-04-14T22:02:17.265Z,1021.47
2019-04-14T22:07:12.975Z,1021.46
2019-04-14T22:12:08.658Z,1021.38
2019-04-14T22:17:04.407Z,1021.45
2019-04-14T22:22:00.040Z,1021.29
2019-04-14T22:26:55.847Z,1021.34
2019-04-14T22:31:51.439Z,1021.33
2019-04-14T22:36:47.422Z,1021.27
2019-04-14T22:41:44.215Z,1021.31
2019-04-14T22:46:39.618Z,1021.35
2019-04-14T22:51:36.184Z,1021.30
2019-04-14T22:56:39.204Z,1021.24
2019-04-14T23:01:32.112Z,1021.24
2019-04-14T23:06:29.263Z,1021.33
2019-04-14T23:11:24.673Z,1021.32
2019-04-14T23:16:21.104Z,1021.28
2019-04-14T23:21:17.589Z,1021.30
2019-04-14T23:26:13.501Z,1021.12
2019-04-14T23:31:09.976Z,1021.09
2019-04-14T23:36:04.946Z,1021.15
2019-04-14T23:41:01.878Z,1021.06
2019-04-14T23:45:57.312Z,1021.00
2019-04-14T23:50:53.312Z,1020.96
2019-04-14T23:55:50.381Z,1021.06
